Time;durP1;ratioP1;P1;durP2;ratioP2;P2;SDS_P1;SDS_P2;PMS_P1;PMS_P2;Temp;Humidity;BMP_temperature;BMP_pressure;BME280_temperature;BME280_humidity;BME280_pressure;Samples;Min_cycle;Max_cycle;Signal;HPM_P1;HPM_P2
2022/09/10 00:03:30;;;;;;;3.25;1.00;;;15.50;99.90;;;;;;12429703;28;20506;-37
2022/09/10 00:09:32;;;;;;;5.82;1.27;;;15.40;99.90;;;;;;12434171;28;20054;-37
2022/09/10 00:15:42;;;;;;;6.70;1.10;;;15.50;99.90;;;;;;12420730;28;20042;-36
2022/09/10 00:21:44;;;;;;;3.25;1.23;;;15.50;99.90;;;;;;12417286;28;20058;-36
2022/09/10 00:27:46;;;;;;;3.58;1.20;;;15.50;99.90;;;;;;12434966;28;20120;-36
2022/09/10 00:33:49;;;;;;;4.22;1.23;;;15.50;99.90;;;;;;12415111;28;20056;-36
2022/09/10 00:39:51;;;;;;;3.22;1.13;;;15.40;99.90;;;;;;12431140;28;20482;-37
2022/09/10 00:45:54;;;;;;;9.70;1.50;;;15.40;99.90;;;;;;12427828;28;20050;-36
2022/09/10 00:51:56;;;;;;;4.30;1.20;;;15.50;99.90;;;;;;12430333;28;20050;-36
2022/09/10 00:58:00;;;;;;;3.15;1.50;;;15.50;99.90;;;;;;12443596;28;20711;-36
2022/09/10 01:04:05;;;;;;;2.73;1.37;;;15.50;99.90;;;;;;12437536;28;20049;-36
2022/09/10 01:10:22;;;;;;;4.03;1.60;;;15.60;99.90;;;;;;12436483;28;20308;-36
2022/09/10 01:16:32;;;;;;;5.88;1.60;;;15.50;99.90;;;;;;12388483;28;20049;-36
2022/09/10 01:22:37;;;;;;;4.07;1.70;;;15.50;99.90;;;;;;12440769;28;20046;-36
2022/09/10 01:28:46;;;;;;;4.20;1.80;;;15.50;99.90;;;;;;12446974;28;20426;-36
2022/09/10 01:35:26;;;;;;;3.63;1.80;;;15.50;99.90;;;;;;12419435;28;20058;-36
2022/09/10 01:41:29;;;;;;;4.00;1.85;;;15.50;99.90;;;;;;12441825;28;20061;-36
2022/09/10 01:47:47;;;;;;;5.35;2.25;;;15.50;99.90;;;;;;12440177;28;20042;-37
2022/09/10 01:53:52;;;;;;;4.97;2.00;;;15.50;99.90;;;;;;12439415;28;20061;-36
2022/09/10 01:59:53;;;;;;;6.43;2.33;;;15.50;99.90;;;;;;12449671;28;20046;-36
2022/09/10 02:05:57;;;;;;;6.40;2.50;;;15.50;99.90;;;;;;12444659;28;20049;-37
2022/09/10 02:12:00;;;;;;;11.70;2.92;;;15.50;99.90;;;;;;12440194;28;20046;-37
2022/09/10 02:18:03;;;;;;;6.82;2.70;;;15.30;99.90;;;;;;12436152;28;20388;-36
2022/09/10 02:24:08;;;;;;;6.32;2.90;;;15.20;99.90;;;;;;12438411;28;20133;-37
2022/09/10 02:30:11;;;;;;;6.05;2.90;;;15.10;99.90;;;;;;12441707;28;20061;-36
2022/09/10 02:36:13;;;;;;;4.93;3.40;;;15.10;99.90;;;;;;12438785;28;20464;-37
2022/09/10 02:42:16;;;;;;;8.27;3.20;;;15.10;99.90;;;;;;12438082;28;20324;-37
2022/09/10 02:48:20;;;;;;;6.80;3.13;;;15.10;99.90;;;;;;12420817;28;20050;-37
2022/09/10 02:54:22;;;;;;;11.63;4.80;;;15.00;99.90;;;;;;12439449;28;20064;-36
2022/09/10 03:00:23;;;;;;;7.75;3.40;;;15.00;99.90;;;;;;12438490;28;20123;-36
2022/09/10 03:06:26;;;;;;;12.50;3.70;;;15.10;99.90;;;;;;12432503;28;20050;-37
2022/09/10 03:12:28;;;;;;;6.45;3.65;;;15.00;99.90;;;;;;12438669;28;20141;-36
2022/09/10 03:18:33;;;;;;;8.30;3.60;;;15.00;99.90;;;;;;12434684;28;20073;-37
2022/09/10 03:24:36;;;;;;;7.43;3.20;;;15.00;99.90;;;;;;12437123;28;20493;-37
2022/09/10 03:30:39;;;;;;;7.60;3.55;;;15.10;99.90;;;;;;12436470;28;20051;-36
2022/09/10 03:36:41;;;;;;;6.27;3.37;;;15.10;99.90;;;;;;12438582;28;20505;-38
2022/09/10 03:42:43;;;;;;;7.63;3.30;;;15.00;99.90;;;;;;12437088;28;20054;-37
2022/09/10 03:48:44;;;;;;;7.95;3.25;;;14.90;99.90;;;;;;12413098;28;20050;-37
2022/09/10 03:54:46;;;;;;;5.47;2.88;;;14.90;99.90;;;;;;12433653;28;20480;-37
2022/09/10 04:00:48;;;;;;;8.15;3.42;;;14.90;99.90;;;;;;12415787;28;20046;-37
2022/09/10 04:06:52;;;;;;;6.82;3.28;;;14.90;99.90;;;;;;12436680;28;20065;-38
2022/09/10 04:12:54;;;;;;;7.22;3.08;;;15.00;99.90;;;;;;12436237;28;20560;-37
2022/09/10 04:18:55;;;;;;;6.55;2.90;;;15.00;99.90;;;;;;12433921;28;20060;-37
2022/09/10 04:24:58;;;;;;;6.72;2.30;;;14.90;99.90;;;;;;12433055;28;20068;-37
2022/09/10 04:31:00;;;;;;;4.95;2.80;;;14.90;99.90;;;;;;12443802;28;20050;-37
2022/09/10 04:37:02;;;;;;;7.28;2.28;;;15.00;99.90;;;;;;12433077;28;20054;-37
2022/09/10 04:43:05;;;;;;;4.57;2.28;;;15.00;99.90;;;;;;12429096;28;20061;-37
2022/09/10 04:49:07;;;;;;;7.72;2.00;;;14.80;99.90;;;;;;12436295;28;20053;-37
2022/09/10 04:55:09;;;;;;;4.50;2.03;;;14.80;99.90;;;;;;12427464;28;20054;-36
2022/09/10 05:01:11;;;;;;;5.30;1.90;;;14.90;99.90;;;;;;12435441;28;20069;-37
2022/09/10 05:07:13;;;;;;;4.15;1.88;;;14.80;99.90;;;;;;12429436;28;20053;-37
2022/09/10 05:13:15;;;;;;;9.00;2.42;;;14.80;99.90;;;;;;12433588;28;20045;-37
2022/09/10 05:19:17;;;;;;;4.78;1.95;;;14.80;99.90;;;;;;12434275;28;20417;-37
2022/09/10 05:25:19;;;;;;;7.45;1.77;;;14.90;99.90;;;;;;12416297;28;20053;-37
2022/09/10 05:31:21;;;;;;;4.00;1.65;;;14.90;99.90;;;;;;12432153;28;20498;-36
2022/09/10 05:37:23;;;;;;;3.33;1.85;;;14.80;99.90;;;;;;12416074;28;20417;-37
2022/09/10 05:43:26;;;;;;;6.55;2.10;;;14.90;99.90;;;;;;12427005;28;20129;-36
2022/09/10 05:49:29;;;;;;;3.97;1.80;;;14.90;99.90;;;;;;12437800;28;20080;-37
2022/09/10 05:55:32;;;;;;;5.85;1.90;;;14.90;99.90;;;;;;12434333;28;20042;-36
2022/09/10 06:01:33;;;;;;;5.47;1.65;;;14.90;99.90;;;;;;12441018;28;20095;-36
2022/09/10 06:07:35;;;;;;;4.22;1.40;;;15.00;99.90;;;;;;12436630;28;20053;-39
2022/09/10 06:13:39;;;;;;;5.10;1.70;;;15.00;99.90;;;;;;12439124;28;20520;-37
2022/09/10 06:19:41;;;;;;;6.13;1.50;;;15.00;99.90;;;;;;12435697;28;20563;-38
2022/09/10 06:25:43;;;;;;;5.63;1.58;;;15.20;99.90;;;;;;12440330;28;20042;-36
2022/09/10 06:31:46;;;;;;;8.88;1.63;;;15.30;99.90;;;;;;12440621;28;20046;-36
2022/09/10 06:37:47;;;;;;;4.20;1.48;;;15.30;99.90;;;;;;12441900;28;20058;-36
2022/09/10 06:43:49;;;;;;;6.55;2.00;;;15.30;99.90;;;;;;12444105;28;20050;-36
2022/09/10 06:49:51;;;;;;;4.45;1.65;;;15.30;99.90;;;;;;12434456;28;20068;-36
2022/09/10 06:55:54;;;;;;;3.47;1.15;;;15.40;99.90;;;;;;12435582;28;20054;-37
2022/09/10 07:01:56;;;;;;;4.65;1.83;;;15.50;99.90;;;;;;12437140;28;20091;-37
2022/09/10 07:07:58;;;;;;;3.08;1.20;;;15.60;99.90;;;;;;12438769;28;20053;-39
2022/09/10 07:14:00;;;;;;;3.42;1.35;;;15.80;99.90;;;;;;12433208;28;20086;-39
2022/09/10 07:20:02;;;;;;;3.00;1.45;;;15.80;99.90;;;;;;12437743;28;20046;-38
2022/09/10 07:26:10;;;;;;;4.47;2.10;;;15.90;99.90;;;;;;12433204;28;20050;-38
2022/09/10 07:32:12;;;;;;;4.25;1.70;;;15.90;99.90;;;;;;12440511;28;20123;-39
2022/09/10 07:38:19;;;;;;;5.32;2.03;;;16.00;99.90;;;;;;12433240;28;20045;-40
2022/09/10 07:44:21;;;;;;;5.28;2.20;;;16.10;99.90;;;;;;12434252;28;20525;-38
2022/09/10 07:50:23;;;;;;;5.03;2.00;;;16.30;99.90;;;;;;12432344;28;20054;-39
2022/09/10 07:56:25;;;;;;;3.60;1.92;;;16.50;99.90;;;;;;12432679;28;20065;-38
2022/09/10 08:02:27;;;;;;;5.22;2.20;;;16.70;99.90;;;;;;12430971;28;20044;-38
2022/09/10 08:08:34;;;;;;;3.50;1.85;;;16.70;99.90;;;;;;12439015;28;20497;-38
2022/09/10 08:14:36;;;;;;;3.92;1.75;;;16.50;99.90;;;;;;12419972;28;20046;-40
2022/09/10 08:20:39;;;;;;;3.08;1.75;;;16.50;99.90;;;;;;12430934;28;20089;-39
2022/09/10 08:26:41;;;;;;;3.55;1.60;;;16.40;99.90;;;;;;12440885;28;20042;-39
2022/09/10 08:32:43;;;;;;;5.03;1.95;;;16.40;99.90;;;;;;12434135;28;20406;-38
2022/09/10 08:38:45;;;;;;;5.10;3.17;;;16.40;99.90;;;;;;12434378;28;20071;-38
2022/09/10 08:44:49;;;;;;;5.80;3.10;;;16.40;99.90;;;;;;12427014;28;20461;-39
2022/09/10 08:51:13;;;;;;;;;;;16.40;99.90;;;;;;12425945;28;20141;-38
2022/09/10 08:57:26;;;;;;;5.82;3.63;;;16.40;99.90;;;;;;12427432;28;19948;-40
2022/09/10 09:03:34;;;;;;;5.95;3.38;;;16.40;99.90;;;;;;12432839;28;20456;-39
2022/09/10 09:09:36;;;;;;;6.82;4.28;;;16.40;99.90;;;;;;12427692;28;20042;-38
2022/09/10 09:16:17;;;;;;;7.18;3.75;;;16.50;99.90;;;;;;12435143;28;20060;-38
2022/09/10 09:22:44;;;;;;;5.22;4.28;;;16.60;99.90;;;;;;12401933;28;20049;-41
2022/09/10 09:29:00;;;;;;;6.25;4.00;;;16.80;99.90;;;;;;12440708;28;20050;-38
2022/09/10 09:35:22;;;;;;;7.55;4.70;;;16.90;99.90;;;;;;12436217;28;20042;-39
2022/09/10 09:41:38;;;;;;;8.48;4.50;;;17.10;99.90;;;;;;12431775;28;20068;-38
2022/09/10 09:47:40;;;;;;;6.40;4.32;;;17.20;99.90;;;;;;12436726;28;20061;-38
2022/09/10 09:53:42;;;;;;;7.88;4.03;;;17.40;99.90;;;;;;12435865;28;20042;-38
2022/09/10 09:59:50;;;;;;;5.72;3.72;;;17.50;99.90;;;;;;12436129;28;20042;-38
2022/09/10 10:06:01;;;;;;;7.15;3.88;;;17.60;99.90;;;;;;12432624;28;20042;-38
2022/09/10 10:12:04;;;;;;;7.75;4.55;;;17.60;99.90;;;;;;12436204;28;20054;-38
2022/09/10 10:18:32;;;;;;;5.30;3.67;;;17.80;99.90;;;;;;12435496;28;20141;-38
2022/09/10 10:24:34;;;;;;;5.70;4.07;;;17.90;99.90;;;;;;12435040;28;20108;-39
2022/09/10 10:30:36;;;;;;;6.13;3.83;;;17.80;99.90;;;;;;12440185;28;20056;-38
2022/09/10 10:37:12;;;;;;;5.25;4.35;;;17.50;99.90;;;;;;12435951;28;20048;-38
2022/09/10 10:43:40;;;;;;;6.90;4.25;;;17.50;99.90;;;;;;12436405;28;20050;-39
2022/09/10 10:50:03;;;;;;;5.43;3.83;;;17.50;99.90;;;;;;12435716;28;20425;-38
2022/09/10 10:56:37;;;;;;;4.05;3.40;;;18.00;99.90;;;;;;12433458;28;20080;-39
2022/09/10 11:02:45;;;;;;;;;;;19.20;99.90;;;;;;12437732;28;20053;-38
2022/09/10 11:08:54;;;;;;;7.80;3.03;;;20.00;99.90;;;;;;12437015;28;19922;-38
2022/09/10 11:15:08;;;;;;;5.13;2.80;;;19.60;99.90;;;;;;12426076;28;20053;-40
2022/09/10 11:21:24;;;;;;;5.00;3.30;;;19.50;99.90;;;;;;12426352;28;20041;-39
2022/09/10 11:27:38;;;;;;;5.07;2.60;;;19.40;99.90;;;;;;12430948;28;20041;-38
2022/09/10 11:34:04;;;;;;;4.60;2.30;;;19.60;99.90;;;;;;12433288;28;20236;-38
2022/09/10 11:40:17;;;;;;;3.45;2.25;;;19.90;99.90;;;;;;12435029;28;20049;-38
2022/09/10 11:46:31;;;;;;;3.05;1.92;;;20.10;99.90;;;;;;12381866;28;20064;-38
2022/09/10 11:52:33;;;;;;;4.38;2.22;;;20.10;99.90;;;;;;12414527;28;20050;-38
2022/09/10 11:58:49;;;;;;;3.70;2.43;;;19.90;99.90;;;;;;12438100;28;20489;-39
2022/09/10 12:05:06;;;;;;;3.38;1.95;;;19.60;99.90;;;;;;12435266;28;20042;-40
2022/09/10 12:11:27;;;;;;;3.75;2.30;;;19.60;99.90;;;;;;12437227;28;20054;-38
2022/09/10 12:17:33;;;;;;;3.17;2.40;;;19.60;99.90;;;;;;12428946;28;20046;-38
2022/09/10 12:23:41;;;;;;;3.33;2.25;;;19.60;99.90;;;;;;12418494;28;20057;-39
2022/09/10 12:29:43;;;;;;;4.63;2.40;;;19.80;99.90;;;;;;12437320;28;20042;-38
2022/09/10 12:35:50;;;;;;;4.68;2.20;;;19.60;99.90;;;;;;12418621;28;20049;-38
2022/09/10 12:41:52;;;;;;;3.92;2.20;;;19.50;99.90;;;;;;12416884;28;20050;-39
2022/09/10 12:47:54;;;;;;;4.30;2.03;;;19.30;99.90;;;;;;12426106;28;20061;-39
2022/09/10 12:54:22;;;;;;;2.78;1.90;;;19.20;99.90;;;;;;12433673;28;20042;-39
2022/09/10 13:00:29;;;;;;;3.90;1.63;;;19.00;99.90;;;;;;12447300;28;20129;-38
2022/09/10 13:06:39;;;;;;;2.90;1.80;;;18.90;99.90;;;;;;12443305;28;20139;-39
2022/09/10 13:12:43;;;;;;;3.47;1.80;;;18.70;99.90;;;;;;12448016;28;20038;-39
2022/09/10 13:18:46;;;;;;;2.65;1.80;;;18.60;99.90;;;;;;12444864;28;20139;-38
2022/09/10 13:25:04;;;;;;;3.27;1.30;;;18.60;99.90;;;;;;12442525;28;20049;-39
2022/09/10 13:31:10;;;;;;;3.88;1.48;;;18.30;99.90;;;;;;12453354;28;20054;-38
2022/09/10 13:37:25;;;;;;;3.30;1.25;;;18.10;99.90;;;;;;12451524;28;20196;-38
2022/09/10 13:43:52;;;;;;;1.50;0.90;;;17.90;99.90;;;;;;12439033;28;20543;-39
2022/09/10 13:49:59;;;;;;;3.85;1.13;;;17.70;99.90;;;;;;12434039;28;20054;-38
2022/09/10 13:56:07;;;;;;;1.55;0.90;;;17.60;99.90;;;;;;12447135;28;20048;-38
2022/09/10 14:02:18;;;;;;;2.83;1.33;;;17.60;99.90;;;;;;12432673;28;20056;-38
2022/09/10 14:08:28;;;;;;;3.45;1.60;;;17.70;99.90;;;;;;12441742;28;20048;-38
2022/09/10 14:14:36;;;;;;;2.97;1.63;;;17.90;99.90;;;;;;12432410;28;20406;-38
2022/09/10 14:20:38;;;;;;;3.83;1.70;;;18.20;99.90;;;;;;12429793;28;20045;-38
2022/09/10 14:26:47;;;;;;;3.08;1.50;;;18.50;99.90;;;;;;12429648;28;20049;-38
2022/09/10 14:32:50;;;;;;;2.50;1.40;;;18.50;99.90;;;;;;12440205;28;20136;-40
2022/09/10 14:39:05;;;;;;;2.27;1.50;;;18.40;99.90;;;;;;12433221;28;20049;-38
2022/09/10 14:45:37;;;;;;;2.55;1.65;;;18.50;99.90;;;;;;12428847;28;20041;-39
2022/09/10 14:51:39;;;;;;;2.85;1.63;;;18.60;99.90;;;;;;12428734;28;20081;-38
2022/09/10 14:57:41;;;;;;;2.33;1.60;;;18.70;99.90;;;;;;12434641;28;20042;-39
2022/09/10 15:03:43;;;;;;;3.22;1.58;;;18.60;99.90;;;;;;12440922;28;20406;-38
2022/09/10 15:09:45;;;;;;;3.10;1.73;;;18.60;99.90;;;;;;12431280;28;20066;-38
2022/09/10 15:15:47;;;;;;;2.28;1.30;;;18.60;99.90;;;;;;12427402;28;20042;-39
2022/09/10 15:21:49;;;;;;;5.00;2.30;;;18.50;99.90;;;;;;12430142;28;20128;-38
2022/09/10 15:27:51;;;;;;;3.88;2.20;;;18.50;99.90;;;;;;12432698;28;20449;-39
2022/09/10 15:33:53;;;;;;;3.08;2.20;;;18.50;99.90;;;;;;12429941;28;20041;-38
2022/09/10 15:39:57;;;;;;;4.15;2.80;;;18.50;99.90;;;;;;12430314;28;20095;-38
2022/09/10 15:46:00;;;;;;;3.72;1.95;;;18.50;99.90;;;;;;12428291;28;20161;-38
2022/09/10 15:52:02;;;;;;;3.00;1.88;;;18.60;99.90;;;;;;12427764;28;20050;-38
2022/09/10 15:58:05;;;;;;;5.95;2.20;;;18.70;99.90;;;;;;12431215;28;20042;-40
2022/09/10 16:04:07;;;;;;;4.80;2.38;;;18.60;99.90;;;;;;12435600;28;20046;-38
2022/09/10 16:10:11;;;;;;;3.30;2.10;;;18.50;99.90;;;;;;12439463;28;20057;-39
2022/09/10 16:16:17;;;;;;;5.15;2.25;;;18.40;99.90;;;;;;12414384;28;20049;-40
2022/09/10 16:22:19;;;;;;;2.63;1.80;;;18.50;99.90;;;;;;12432281;28;20172;-39
2022/09/10 16:28:21;;;;;;;5.65;2.20;;;18.50;99.90;;;;;;12430031;28;20425;-38
2022/09/10 16:34:23;;;;;;;3.70;2.08;;;18.50;99.90;;;;;;12424140;28;20112;-39
2022/09/10 16:40:25;;;;;;;3.50;2.28;;;18.50;99.90;;;;;;12428417;28;20168;-38
2022/09/10 16:46:27;;;;;;;7.95;3.35;;;18.50;99.90;;;;;;12427811;28;20080;-39
2022/09/10 16:52:30;;;;;;;3.60;2.50;;;18.50;99.90;;;;;;12426790;28;20093;-39
2022/09/10 16:58:33;;;;;;;5.40;2.80;;;18.50;99.90;;;;;;12428648;28;20046;-39
2022/09/10 17:04:36;;;;;;;6.30;3.28;;;18.40;99.90;;;;;;12427847;28;20042;-39
2022/09/10 17:10:39;;;;;;;6.40;4.20;;;18.30;99.90;;;;;;12415149;28;20050;-39
2022/09/10 17:16:42;;;;;;;5.32;4.32;;;18.30;99.90;;;;;;12429217;28;20050;-39
2022/09/10 17:22:45;;;;;;;6.75;5.07;;;18.20;99.90;;;;;;12433365;28;20054;-39
2022/09/10 17:29:01;;;;;;;6.00;4.70;;;18.00;99.90;;;;;;12431657;28;20137;-38
2022/09/10 17:35:03;;;;;;;7.10;5.63;;;18.00;99.90;;;;;;12428074;28;20046;-39
2022/09/10 17:41:05;;;;;;;8.10;5.75;;;17.90;99.90;;;;;;12418213;28;20041;-39
2022/09/10 17:47:08;;;;;;;5.82;3.42;;;17.90;99.90;;;;;;12443335;28;20064;-39
2022/09/10 17:53:11;;;;;;;4.15;2.42;;;17.80;99.90;;;;;;12431039;28;20074;-39
2022/09/10 17:59:13;;;;;;;4.28;2.08;;;17.70;99.90;;;;;;12440258;28;20451;-38
2022/09/10 18:05:15;;;;;;;5.03;3.20;;;17.60;99.90;;;;;;12435334;28;20053;-39
2022/09/10 18:11:21;;;;;;;4.88;3.13;;;17.60;99.90;;;;;;12430100;28;20194;-38
2022/09/10 18:17:22;;;;;;;4.22;2.35;;;17.50;99.90;;;;;;12424687;28;20105;-38
2022/09/10 18:23:24;;;;;;;2.75;1.60;;;17.50;99.90;;;;;;12430471;28;20123;-38
2022/09/10 18:29:28;;;;;;;3.45;2.30;;;17.40;99.90;;;;;;12437126;28;20061;-39
2022/09/10 18:35:34;;;;;;;3.13;2.38;;;17.40;99.90;;;;;;12435172;28;20041;-39
2022/09/10 18:41:39;;;;;;;4.15;2.10;;;17.30;99.90;;;;;;12437607;28;20103;-39
2022/09/10 18:47:42;;;;;;;4.18;2.13;;;17.30;99.90;;;;;;12439285;28;20533;-39
2022/09/10 18:53:46;;;;;;;5.38;2.28;;;17.20;99.90;;;;;;12427250;28;20563;-38
2022/09/10 18:59:48;;;;;;;3.13;2.38;;;17.20;99.90;;;;;;12433574;28;20045;-39
2022/09/10 19:05:50;;;;;;;4.32;2.00;;;17.10;99.90;;;;;;12429967;28;20062;-38
2022/09/10 19:11:53;;;;;;;4.78;2.10;;;17.10;99.90;;;;;;12435528;28;20049;-39
2022/09/10 19:17:55;;;;;;;3.53;2.30;;;17.10;99.90;;;;;;12426367;28;20510;-39
2022/09/10 19:24:00;;;;;;;3.95;2.30;;;17.10;99.90;;;;;;12426844;28;20049;-39
2022/09/10 19:30:02;;;;;;;4.03;2.63;;;17.10;99.90;;;;;;12414305;28;20255;-38
2022/09/10 19:36:10;;;;;;;4.70;2.83;;;17.00;99.90;;;;;;12425804;28;20050;-38
2022/09/10 19:42:12;;;;;;;3.90;2.50;;;17.10;99.90;;;;;;12418964;28;20050;-38
2022/09/10 19:48:13;;;;;;;6.72;2.60;;;17.00;99.90;;;;;;12427053;28;20046;-39
2022/09/10 19:54:15;;;;;;;3.78;2.38;;;17.10;99.90;;;;;;12428014;28;20045;-38
2022/09/10 20:00:17;;;;;;;4.28;2.60;;;17.10;99.90;;;;;;12431971;28;20053;-39
2022/09/10 20:06:40;;;;;;;3.55;2.38;;;17.00;99.90;;;;;;12427732;28;20053;-40
2022/09/10 20:12:41;;;;;;;3.13;2.30;;;17.00;99.90;;;;;;12427321;28;20073;-39
2022/09/10 20:18:44;;;;;;;4.55;2.30;;;17.00;99.90;;;;;;12420475;28;20049;-38
2022/09/10 20:24:46;;;;;;;4.55;3.08;;;17.00;99.90;;;;;;12431761;28;20053;-39
2022/09/10 20:30:48;;;;;;;6.38;4.28;;;16.80;99.90;;;;;;12434244;28;20056;-39
2022/09/10 20:36:50;;;;;;;5.10;3.75;;;16.80;99.90;;;;;;12417165;28;20046;-38
2022/09/10 20:42:52;;;;;;;3.90;2.70;;;16.70;99.90;;;;;;12431307;28;20045;-41
2022/09/10 20:49:01;;;;;;;3.72;2.15;;;16.70;99.90;;;;;;12433535;28;20056;-39
2022/09/10 20:55:05;;;;;;;3.33;2.10;;;16.60;99.90;;;;;;12417107;28;20049;-40
2022/09/10 21:01:17;;;;;;;4.80;2.20;;;16.60;99.90;;;;;;12426404;28;20057;-38
2022/09/10 21:07:19;;;;;;;4.13;2.67;;;16.60;99.90;;;;;;12428827;28;20050;-39
2022/09/10 21:13:21;;;;;;;5.57;2.67;;;16.60;99.90;;;;;;12429579;28;20046;-38
2022/09/10 21:19:25;;;;;;;5.18;2.80;;;16.50;99.90;;;;;;12433824;28;20049;-39
2022/09/10 21:25:28;;;;;;;3.13;2.40;;;16.30;99.90;;;;;;12439685;28;20052;-39
2022/09/10 21:31:30;;;;;;;4.32;3.33;;;16.30;99.90;;;;;;12442318;28;20612;-39
2022/09/10 21:37:32;;;;;;;4.70;3.05;;;16.20;99.90;;;;;;12437060;28;20196;-38
2022/09/10 21:43:34;;;;;;;4.75;3.30;;;16.30;99.90;;;;;;12442079;28;20513;-38
2022/09/10 21:49:36;;;;;;;3.85;3.10;;;16.20;99.90;;;;;;12433131;28;20489;-38
2022/09/10 21:55:38;;;;;;;7.47;3.88;;;16.20;99.90;;;;;;12440308;28;20064;-38
2022/09/10 22:01:42;;;;;;;6.22;4.50;;;15.90;99.90;;;;;;12435226;28;20468;-39
2022/09/10 22:07:45;;;;;;;5.70;4.68;;;15.80;99.90;;;;;;12440413;28;20485;-38
2022/09/10 22:13:57;;;;;;;8.13;5.15;;;15.90;99.90;;;;;;12435387;28;20405;-38
2022/09/10 22:19:59;;;;;;;6.32;4.95;;;15.80;99.90;;;;;;12431723;28;20050;-40
2022/09/10 22:26:05;;;;;;;5.80;3.90;;;15.90;99.90;;;;;;12431923;28;20049;-38
2022/09/10 22:32:08;;;;;;;5.00;4.38;;;16.00;99.90;;;;;;12420934;28;20066;-38
2022/09/10 22:38:12;;;;;;;6.85;4.75;;;16.00;99.90;;;;;;12437618;28;20046;-39
2022/09/10 22:44:22;;;;;;;7.30;5.95;;;15.90;99.90;;;;;;12427763;28;20061;-38
2022/09/10 22:50:23;;;;;;;6.95;5.40;;;15.80;99.90;;;;;;12432651;28;20061;-38
2022/09/10 22:56:26;;;;;;;8.75;5.38;;;15.90;99.90;;;;;;12431327;28;20087;-38
2022/09/10 23:02:28;;;;;;;11.35;5.28;;;15.90;99.90;;;;;;12430612;28;20412;-38
2022/09/10 23:08:31;;;;;;;6.97;5.63;;;16.00;99.90;;;;;;12434328;28;20046;-38
2022/09/10 23:14:33;;;;;;;8.98;6.70;;;15.80;99.90;;;;;;12437375;28;20042;-38
2022/09/10 23:20:35;;;;;;;10.27;8.35;;;15.70;99.90;;;;;;12432369;28;20042;-39
2022/09/10 23:26:37;;;;;;;11.60;9.23;;;15.70;99.90;;;;;;12432629;28;20054;-38
2022/09/10 23:32:40;;;;;;;11.82;10.07;;;15.60;99.90;;;;;;12430242;28;20078;-38
2022/09/10 23:38:43;;;;;;;14.77;10.10;;;15.60;99.90;;;;;;12436673;28;20046;-38
2022/09/10 23:44:44;;;;;;;13.18;10.13;;;15.60;99.90;;;;;;12424719;28;20046;-38
2022/09/10 23:50:46;;;;;;;14.95;10.82;;;15.60;99.90;;;;;;12436874;28;20623;-38
2022/09/10 23:56:48;;;;;;;14.40;11.43;;;15.60;99.90;;;;;;12432776;28;20057;-38
